sensor_id;sensor_type;location;lat;lon;timestamp;pressure;altitude;pressure_sealevel;temperature;humidity
41596;BME280;27283;52.504;13.358;2023-04-27T00:00:30;101434.19;;;6.44;64.92
41596;BME280;27283;52.504;13.358;2023-04-27T00:03:15;101435.28;;;6.52;65.07
41596;BME280;27283;52.504;13.358;2023-04-27T00:05:54;101423.50;;;6.32;64.65
41596;BME280;27283;52.504;13.358;2023-04-27T00:08:28;101428.72;;;6.34;64.88
41596;BME280;27283;52.504;13.358;2023-04-27T00:11:07;101425.34;;;6.43;65.55
41596;BME280;27283;52.504;13.358;2023-04-27T00:13:41;101422.78;;;6.42;64.60
41596;BME280;27283;52.504;13.358;2023-04-27T00:16:18;101425.69;;;6.50;65.15
41596;BME280;27283;52.504;13.358;2023-04-27T00:18:51;101424.72;;;6.51;64.71
41596;BME280;27283;52.504;13.358;2023-04-27T00:24:28;101420.94;;;6.31;65.75
41596;BME280;27283;52.504;13.358;2023-04-27T00:27:07;101421.34;;;6.37;65.37
41596;BME280;27283;52.504;13.358;2023-04-27T00:29:43;101420.34;;;6.38;64.55
41596;BME280;27283;52.504;13.358;2023-04-27T00:32:26;101420.81;;;6.32;64.29
41596;BME280;27283;52.504;13.358;2023-04-27T00:35:00;101425.47;;;6.42;64.58
41596;BME280;27283;52.504;13.358;2023-04-27T00:37:34;101422.91;;;6.29;65.17
41596;BME280;27283;52.504;13.358;2023-04-27T00:40:08;101423.63;;;6.31;64.61
41596;BME280;27283;52.504;13.358;2023-04-27T00:42:48;101429.72;;;6.33;64.12
41596;BME280;27283;52.504;13.358;2023-04-27T00:45:29;101431.38;;;6.34;64.66
41596;BME280;27283;52.504;13.358;2023-04-27T00:48:03;101432.75;;;6.28;64.47
41596;BME280;27283;52.504;13.358;2023-04-27T00:50:39;101429.44;;;6.25;64.81
41596;BME280;27283;52.504;13.358;2023-04-27T00:53:14;101440.63;;;6.18;64.97
41596;BME280;27283;52.504;13.358;2023-04-27T00:55:47;101440.03;;;6.15;65.45
41596;BME280;27283;52.504;13.358;2023-04-27T00:58:37;101443.88;;;6.11;65.75
41596;BME280;27283;52.504;13.358;2023-04-27T01:01:14;101440.03;;;6.15;65.46
41596;BME280;27283;52.504;13.358;2023-04-27T01:03:50;101442.78;;;6.02;66.41
41596;BME280;27283;52.504;13.358;2023-04-27T01:06:23;101444.59;;;6.01;66.52
41596;BME280;27283;52.504;13.358;2023-04-27T01:08:58;101439.72;;;5.95;66.67
41596;BME280;27283;52.504;13.358;2023-04-27T01:11:31;101438.44;;;6.01;66.70
41596;BME280;27283;52.504;13.358;2023-04-27T01:14:09;101440.88;;;6.04;67.02
41596;BME280;27283;52.504;13.358;2023-04-27T01:16:43;101444.00;;;6.09;67.05
41596;BME280;27283;52.504;13.358;2023-04-27T01:19:19;101446.81;;;6.08;67.13
41596;BME280;27283;52.504;13.358;2023-04-27T01:22:09;101452.75;;;6.00;68.30
41596;BME280;27283;52.504;13.358;2023-04-27T01:25:06;101446.50;;;5.88;68.06
41596;BME280;27283;52.504;13.358;2023-04-27T01:27:42;101451.34;;;5.83;67.84
41596;BME280;27283;52.504;13.358;2023-04-27T01:30:19;101444.91;;;5.85;67.97
41596;BME280;27283;52.504;13.358;2023-04-27T01:32:52;101447.09;;;5.92;67.77
41596;BME280;27283;52.504;13.358;2023-04-27T01:35:27;101457.13;;;6.01;67.88
41596;BME280;27283;52.504;13.358;2023-04-27T01:38:17;101457.59;;;6.06;68.26
41596;BME280;27283;52.504;13.358;2023-04-27T01:41:03;101463.00;;;5.93;68.45
41596;BME280;27283;52.504;13.358;2023-04-27T01:43:38;101458.38;;;5.84;67.83
41596;BME280;27283;52.504;13.358;2023-04-27T01:46:13;101461.03;;;5.84;68.02
41596;BME280;27283;52.504;13.358;2023-04-27T01:48:47;101463.22;;;5.79;68.17
41596;BME280;27283;52.504;13.358;2023-04-27T01:51:24;101468.06;;;5.74;68.25
41596;BME280;27283;52.504;13.358;2023-04-27T01:54:01;101467.94;;;5.75;68.06
41596;BME280;27283;52.504;13.358;2023-04-27T01:57:04;101469.97;;;5.60;67.94
41596;BME280;27283;52.504;13.358;2023-04-27T01:59:38;101465.22;;;5.64;68.00
41596;BME280;27283;52.504;13.358;2023-04-27T02:02:13;101472.41;;;5.63;67.89
41596;BME280;27283;52.504;13.358;2023-04-27T02:04:47;101480.63;;;5.60;68.29
41596;BME280;27283;52.504;13.358;2023-04-27T02:07:20;101479.16;;;5.56;68.58
41596;BME280;27283;52.504;13.358;2023-04-27T02:09:53;101475.19;;;5.62;68.63
41596;BME280;27283;52.504;13.358;2023-04-27T02:12:31;101483.56;;;5.68;68.79
41596;BME280;27283;52.504;13.358;2023-04-27T02:15:04;101488.09;;;5.55;68.81
41596;BME280;27283;52.504;13.358;2023-04-27T02:17:39;101489.81;;;5.56;68.50
41596;BME280;27283;52.504;13.358;2023-04-27T02:20:15;101480.03;;;5.68;68.24
41596;BME280;27283;52.504;13.358;2023-04-27T02:22:50;101479.19;;;5.67;68.09
41596;BME280;27283;52.504;13.358;2023-04-27T02:25:26;101483.00;;;5.52;68.14
41596;BME280;27283;52.504;13.358;2023-04-27T02:28:20;101499.69;;;5.67;68.11
41596;BME280;27283;52.504;13.358;2023-04-27T02:30:55;101493.38;;;5.68;68.18
41596;BME280;27283;52.504;13.358;2023-04-27T02:33:32;101492.72;;;5.53;68.28
41596;BME280;27283;52.504;13.358;2023-04-27T02:36:08;101495.28;;;5.55;68.69
41596;BME280;27283;52.504;13.358;2023-04-27T02:38:51;101497.59;;;5.59;68.29
41596;BME280;27283;52.504;13.358;2023-04-27T02:41:38;101500.16;;;5.61;68.25
41596;BME280;27283;52.504;13.358;2023-04-27T02:44:21;101498.88;;;5.42;68.63
41596;BME280;27283;52.504;13.358;2023-04-27T02:47:20;101494.47;;;5.41;68.20
41596;BME280;27283;52.504;13.358;2023-04-27T02:49:58;101500.16;;;5.37;68.56
41596;BME280;27283;52.504;13.358;2023-04-27T02:52:35;101494.44;;;5.30;68.48
41596;BME280;27283;52.504;13.358;2023-04-27T02:55:10;101506.09;;;5.40;68.21
41596;BME280;27283;52.504;13.358;2023-04-27T02:57:42;101502.94;;;5.35;68.50
41596;BME280;27283;52.504;13.358;2023-04-27T03:00:19;101506.88;;;5.42;68.37
41596;BME280;27283;52.504;13.358;2023-04-27T03:02:52;101497.88;;;5.43;68.84
41596;BME280;27283;52.504;13.358;2023-04-27T03:05:26;101508.03;;;5.38;68.25
41596;BME280;27283;52.504;13.358;2023-04-27T03:08:06;101508.09;;;5.49;68.09
41596;BME280;27283;52.504;13.358;2023-04-27T03:10:41;101505.53;;;5.48;68.07
41596;BME280;27283;52.504;13.358;2023-04-27T03:13:36;101513.09;;;5.30;68.83
41596;BME280;27283;52.504;13.358;2023-04-27T03:16:15;101508.03;;;5.38;68.30
41596;BME280;27283;52.504;13.358;2023-04-27T03:19:16;101508.88;;;5.39;68.15
41596;BME280;27283;52.504;13.358;2023-04-27T03:21:50;101510.47;;;5.41;68.71
41596;BME280;27283;52.504;13.358;2023-04-27T03:24:24;101513.34;;;5.27;68.79
41596;BME280;27283;52.504;13.358;2023-04-27T03:26:59;101512.34;;;5.28;69.20
41596;BME280;27283;52.504;13.358;2023-04-27T03:29:34;101512.00;;;5.32;68.82
41596;BME280;27283;52.504;13.358;2023-04-27T03:32:11;101514.56;;;5.34;68.36
41596;BME280;27283;52.504;13.358;2023-04-27T03:34:46;101522.75;;;5.44;68.16
41596;BME280;27283;52.504;13.358;2023-04-27T03:37:25;101522.78;;;5.31;68.60
41596;BME280;27283;52.504;13.358;2023-04-27T03:39:58;101521.00;;;5.31;68.83
41596;BME280;27283;52.504;13.358;2023-04-27T03:42:32;101527.56;;;5.39;68.67
41596;BME280;27283;52.504;13.358;2023-04-27T03:45:06;101529.34;;;5.51;68.50
41596;BME280;27283;52.504;13.358;2023-04-27T03:47:43;101529.50;;;5.61;68.54
41596;BME280;27283;52.504;13.358;2023-04-27T03:50:16;101530.09;;;5.64;68.94
41596;BME280;27283;52.504;13.358;2023-04-27T03:52:50;101538.41;;;5.48;68.52
41596;BME280;27283;52.504;13.358;2023-04-27T03:55:39;101537.38;;;5.38;68.61
41596;BME280;27283;52.504;13.358;2023-04-27T03:58:30;101547.03;;;5.52;68.82
41596;BME280;27283;52.504;13.358;2023-04-27T04:01:04;101545.16;;;5.41;68.19
41596;BME280;27283;52.504;13.358;2023-04-27T04:03:41;101550.84;;;5.37;68.40
41596;BME280;27283;52.504;13.358;2023-04-27T04:06:17;101547.81;;;5.41;68.37
41596;BME280;27283;52.504;13.358;2023-04-27T04:08:50;101552.47;;;5.26;68.82
41596;BME280;27283;52.504;13.358;2023-04-27T04:11:26;101556.06;;;5.38;68.44
41596;BME280;27283;52.504;13.358;2023-04-27T04:14:00;101550.84;;;5.24;68.77
41596;BME280;27283;52.504;13.358;2023-04-27T04:16:32;101562.13;;;5.40;68.31
41596;BME280;27283;52.504;13.358;2023-04-27T04:19:07;101562.13;;;5.40;68.52
41596;BME280;27283;52.504;13.358;2023-04-27T04:21:43;101562.69;;;5.32;68.99
41596;BME280;27283;52.504;13.358;2023-04-27T04:24:15;101573.22;;;5.34;68.58
41596;BME280;27283;52.504;13.358;2023-04-27T04:26:47;101567.88;;;5.47;68.07
41596;BME280;27283;52.504;13.358;2023-04-27T04:29:20;101563.59;;;5.44;68.08
41596;BME280;27283;52.504;13.358;2023-04-27T04:31:54;101570.47;;;5.60;67.69
41596;BME280;27283;52.504;13.358;2023-04-27T04:34:29;101569.41;;;5.62;67.36
41596;BME280;27283;52.504;13.358;2023-04-27T04:37:02;101562.47;;;5.60;67.48
41596;BME280;27283;52.504;13.358;2023-04-27T04:39:34;101570.44;;;5.73;67.41
41596;BME280;27283;52.504;13.358;2023-04-27T04:42:06;101565.88;;;5.62;67.28
41596;BME280;27283;52.504;13.358;2023-04-27T04:44:38;101563.84;;;5.65;67.27
41596;BME280;27283;52.504;13.358;2023-04-27T04:47:11;101572.22;;;5.72;67.80
41596;BME280;27283;52.504;13.358;2023-04-27T04:49:46;101571.91;;;5.77;66.83
41596;BME280;27283;52.504;13.358;2023-04-27T04:52:18;101575.53;;;5.76;66.53
41596;BME280;27283;52.504;13.358;2023-04-27T04:54:50;101577.63;;;5.83;66.33
41596;BME280;27283;52.504;13.358;2023-04-27T04:57:23;101585.66;;;5.95;66.72
41596;BME280;27283;52.504;13.358;2023-04-27T04:59:55;101578.09;;;6.01;66.89
41596;BME280;27283;52.504;13.358;2023-04-27T05:02:28;101583.81;;;6.08;66.25
41596;BME280;27283;52.504;13.358;2023-04-27T05:05:03;101586.53;;;6.19;65.71
41596;BME280;27283;52.504;13.358;2023-04-27T05:07:36;101590.56;;;6.25;65.20
41596;BME280;27283;52.504;13.358;2023-04-27T05:10:08;101587.25;;;6.21;65.97
41596;BME280;27283;52.504;13.358;2023-04-27T05:12:41;101585.72;;;6.30;65.34
41596;BME280;27283;52.504;13.358;2023-04-27T05:15:13;101580.41;;;6.42;65.37
41596;BME280;27283;52.504;13.358;2023-04-27T05:17:45;101591.47;;;6.60;64.86
41596;BME280;27283;52.504;13.358;2023-04-27T05:20:21;101586.88;;;6.73;63.68
41596;BME280;27283;52.504;13.358;2023-04-27T05:22:53;101595.97;;;6.59;64.15
41596;BME280;27283;52.504;13.358;2023-04-27T05:25:25;101593.09;;;6.73;63.82
41596;BME280;27283;52.504;13.358;2023-04-27T05:27:58;101593.69;;;6.77;63.26
41596;BME280;27283;52.504;13.358;2023-04-27T05:30:30;101597.31;;;6.76;64.36
41596;BME280;27283;52.504;13.358;2023-04-27T05:33:03;101591.47;;;6.82;63.70
41596;BME280;27283;52.504;13.358;2023-04-27T05:35:39;101587.34;;;6.89;63.45
41596;BME280;27283;52.504;13.358;2023-04-27T05:38:13;101591.00;;;7.00;62.77
41596;BME280;27283;52.504;13.358;2023-04-27T05:40:45;101591.63;;;6.92;62.97
41596;BME280;27283;52.504;13.358;2023-04-27T05:43:18;101596.25;;;7.01;62.98
41596;BME280;27283;52.504;13.358;2023-04-27T05:45:50;101592.09;;;7.20;61.76
41596;BME280;27283;52.504;13.358;2023-04-27T05:48:23;101598.53;;;7.28;61.56
41596;BME280;27283;52.504;13.358;2023-04-27T05:51:02;101599.06;;;7.55;61.49
41596;BME280;27283;52.504;13.358;2023-04-27T05:53:35;101594.41;;;7.13;60.39
41596;BME280;27283;52.504;13.358;2023-04-27T05:56:08;101596.94;;;7.37;62.47
41596;BME280;27283;52.504;13.358;2023-04-27T05:58:41;101606.59;;;7.72;60.47
41596;BME280;27283;52.504;13.358;2023-04-27T06:01:13;101601.72;;;7.11;60.98
41596;BME280;27283;52.504;13.358;2023-04-27T06:03:46;101614.72;;;7.38;60.88
41596;BME280;27283;52.504;13.358;2023-04-27T06:06:21;101608.84;;;7.33;61.08
41596;BME280;27283;52.504;13.358;2023-04-27T06:08:54;101612.91;;;7.71;60.25
41596;BME280;27283;52.504;13.358;2023-04-27T06:11:33;101616.72;;;8.01;59.50
41596;BME280;27283;52.504;13.358;2023-04-27T06:14:07;101610.69;;;8.41;58.11
41596;BME280;27283;52.504;13.358;2023-04-27T06:17:00;101613.31;;;9.04;54.35
41596;BME280;27283;52.504;13.358;2023-04-27T06:19:34;101618.28;;;9.09;53.12
41596;BME280;27283;52.504;13.358;2023-04-27T06:22:12;101618.50;;;9.37;52.50
41596;BME280;27283;52.504;13.358;2023-04-27T06:24:45;101622.00;;;9.18;51.93
41596;BME280;27283;52.504;13.358;2023-04-27T06:27:17;101617.94;;;9.93;50.26
41596;BME280;27283;52.504;13.358;2023-04-27T06:29:50;101617.38;;;10.00;50.46
41596;BME280;27283;52.504;13.358;2023-04-27T06:32:23;101616.06;;;10.04;49.49
41596;BME280;27283;52.504;13.358;2023-04-27T06:34:57;101625.81;;;9.85;49.66
41596;BME280;27283;52.504;13.358;2023-04-27T06:37:32;101619.63;;;10.04;49.74
41596;BME280;27283;52.504;13.358;2023-04-27T06:40:07;101630.47;;;9.23;50.86
41596;BME280;27283;52.504;13.358;2023-04-27T06:42:39;101637.63;;;9.53;49.89
41596;BME280;27283;52.504;13.358;2023-04-27T06:45:12;101631.34;;;9.84;51.21
41596;BME280;27283;52.504;13.358;2023-04-27T06:47:45;101625.53;;;10.67;48.31
41596;BME280;27283;52.504;13.358;2023-04-27T06:50:18;101634.25;;;9.61;49.54
41596;BME280;27283;52.504;13.358;2023-04-27T06:52:53;101635.91;;;10.42;48.75
41596;BME280;27283;52.504;13.358;2023-04-27T06:55:26;101636.31;;;11.04;47.06
41596;BME280;27283;52.504;13.358;2023-04-27T06:57:58;101628.75;;;10.70;47.86
41596;BME280;27283;52.504;13.358;2023-04-27T07:00:31;101626.84;;;10.14;47.46
41596;BME280;27283;52.504;13.358;2023-04-27T07:03:06;101627.88;;;10.89;47.27
41596;BME280;27283;52.504;13.358;2023-04-27T07:05:39;101634.91;;;10.53;47.18
41596;BME280;27283;52.504;13.358;2023-04-27T07:08:16;101634.34;;;10.10;48.07
41596;BME280;27283;52.504;13.358;2023-04-27T07:10:50;101644.25;;;10.39;49.20
41596;BME280;27283;52.504;13.358;2023-04-27T07:13:22;101643.53;;;10.66;48.88
41596;BME280;27283;52.504;13.358;2023-04-27T07:15:55;101643.81;;;10.34;48.78
41596;BME280;27283;52.504;13.358;2023-04-27T07:18:34;101639.41;;;10.03;49.51
41596;BME280;27283;52.504;13.358;2023-04-27T07:21:08;101633.81;;;10.93;47.14
41596;BME280;27283;52.504;13.358;2023-04-27T07:23:43;101638.78;;;11.53;45.64
41596;BME280;27283;52.504;13.358;2023-04-27T07:26:31;101637.16;;;11.42;45.48
41596;BME280;27283;52.504;13.358;2023-04-27T07:29:09;101637.22;;;12.68;43.74
41596;BME280;27283;52.504;13.358;2023-04-27T07:31:55;101638.53;;;12.64;42.36
41596;BME280;27283;52.504;13.358;2023-04-27T07:34:28;101635.94;;;12.36;42.89
41596;BME280;27283;52.504;13.358;2023-04-27T07:37:20;101631.44;;;12.45;42.07
41596;BME280;27283;52.504;13.358;2023-04-27T07:39:55;101623.34;;;11.55;44.74
41596;BME280;27283;52.504;13.358;2023-04-27T07:42:28;101641.09;;;10.73;46.02
41596;BME280;27283;52.504;13.358;2023-04-27T07:45:01;101632.44;;;9.71;47.93
41596;BME280;27283;52.504;13.358;2023-04-27T07:47:33;101639.41;;;10.23;48.66
41596;BME280;27283;52.504;13.358;2023-04-27T07:50:08;101642.03;;;12.02;43.30
41596;BME280;27283;52.504;13.358;2023-04-27T07:52:42;101640.25;;;12.73;41.18
41596;BME280;27283;52.504;13.358;2023-04-27T07:55:18;101641.88;;;12.40;39.78
41596;BME280;27283;52.504;13.358;2023-04-27T07:57:52;101647.91;;;11.88;41.32
41596;BME280;27283;52.504;13.358;2023-04-27T08:00:25;101645.66;;;10.43;44.72
41596;BME280;27283;52.504;13.358;2023-04-27T08:02:58;101646.59;;;10.81;44.16
41596;BME280;27283;52.504;13.358;2023-04-27T08:05:31;101659.75;;;10.84;43.96
41596;BME280;27283;52.504;13.358;2023-04-27T08:08:05;101649.75;;;10.67;45.01
41596;BME280;27283;52.504;13.358;2023-04-27T08:10:40;101648.63;;;10.50;45.51
41596;BME280;27283;52.504;13.358;2023-04-27T08:13:13;101656.09;;;10.75;43.55
41596;BME280;27283;52.504;13.358;2023-04-27T08:15:45;101659.38;;;10.59;43.85
41596;BME280;27283;52.504;13.358;2023-04-27T08:18:22;101661.06;;;10.11;43.79
41596;BME280;27283;52.504;13.358;2023-04-27T08:20:55;101658.63;;;10.28;44.57
41596;BME280;27283;52.504;13.358;2023-04-27T08:23:44;101656.41;;;10.14;44.67
41596;BME280;27283;52.504;13.358;2023-04-27T08:26:21;101656.66;;;9.91;45.71
41596;BME280;27283;52.504;13.358;2023-04-27T08:28:55;101664.44;;;10.23;45.57
41596;BME280;27283;52.504;13.358;2023-04-27T08:31:34;101663.59;;;10.03;44.48
41596;BME280;27283;52.504;13.358;2023-04-27T08:34:07;101668.16;;;9.52;45.85
41596;BME280;27283;52.504;13.358;2023-04-27T08:36:39;101667.56;;;8.87;47.80
41596;BME280;27283;52.504;13.358;2023-04-27T08:39:12;101661.75;;;9.03;48.08
41596;BME280;27283;52.504;13.358;2023-04-27T08:41:49;101665.22;;;9.25;47.88
41596;BME280;27283;52.504;13.358;2023-04-27T08:44:21;101664.22;;;9.56;46.55
41596;BME280;27283;52.504;13.358;2023-04-27T08:46:54;101666.19;;;9.14;47.27
41596;BME280;27283;52.504;13.358;2023-04-27T08:49:26;101665.38;;;8.71;48.35
41596;BME280;27283;52.504;13.358;2023-04-27T08:52:00;101660.72;;;8.73;49.54
41596;BME280;27283;52.504;13.358;2023-04-27T08:54:33;101668.00;;;9.44;49.04
41596;BME280;27283;52.504;13.358;2023-04-27T08:57:13;101667.44;;;8.89;47.63
41596;BME280;27283;52.504;13.358;2023-04-27T08:59:57;101661.94;;;8.90;47.39
41596;BME280;27283;52.504;13.358;2023-04-27T09:02:44;101664.19;;;8.64;47.98
41596;BME280;27283;52.504;13.358;2023-04-27T09:05:33;101663.56;;;9.33;46.77
41596;BME280;27283;52.504;13.358;2023-04-27T09:08:14;101644.22;;;10.29;44.46
41596;BME280;27283;52.504;13.358;2023-04-27T09:10:48;101656.81;;;12.34;41.39
41596;BME280;27283;52.504;13.358;2023-04-27T09:13:34;101660.78;;;13.19;38.14
41596;BME280;27283;52.504;13.358;2023-04-27T09:16:07;101655.06;;;13.56;37.74
41596;BME280;27283;52.504;13.358;2023-04-27T09:18:41;101660.00;;;12.30;38.68
41596;BME280;27283;52.504;13.358;2023-04-27T09:21:22;101644.34;;;11.14;40.80
41596;BME280;27283;52.504;13.358;2023-04-27T09:23:55;101661.63;;;10.25;43.42
41596;BME280;27283;52.504;13.358;2023-04-27T09:26:29;101656.94;;;9.88;44.95
41596;BME280;27283;52.504;13.358;2023-04-27T09:29:05;101670.69;;;9.54;47.34
41596;BME280;27283;52.504;13.358;2023-04-27T09:31:38;101658.78;;;9.37;46.78
41596;BME280;27283;52.504;13.358;2023-04-27T09:34:12;101656.47;;;9.22;47.83
41596;BME280;27283;52.504;13.358;2023-04-27T09:36:45;101651.66;;;9.16;47.34
41596;BME280;27283;52.504;13.358;2023-04-27T09:39:19;101648.06;;;9.06;46.80
41596;BME280;27283;52.504;13.358;2023-04-27T09:41:52;101645.84;;;9.62;46.15
41596;BME280;27283;52.504;13.358;2023-04-27T09:44:29;101640.56;;;10.30;44.88
41596;BME280;27283;52.504;13.358;2023-04-27T09:47:05;101640.88;;;11.59;41.25
41596;BME280;27283;52.504;13.358;2023-04-27T09:49:38;101641.84;;;11.40;42.14
41596;BME280;27283;52.504;13.358;2023-04-27T09:52:12;101629.22;;;11.68;41.02
41596;BME280;27283;52.504;13.358;2023-04-27T09:54:45;101633.13;;;12.64;38.02
41596;BME280;27283;52.504;13.358;2023-04-27T09:57:26;101631.09;;;13.61;35.48
41596;BME280;27283;52.504;13.358;2023-04-27T10:00:16;101622.19;;;12.21;37.62
41596;BME280;27283;52.504;13.358;2023-04-27T10:03:02;101623.16;;;12.38;37.27
41596;BME280;27283;52.504;13.358;2023-04-27T10:08:34;101628.56;;;12.02;37.76
41596;BME280;27283;52.504;13.358;2023-04-27T10:11:14;101617.50;;;13.88;37.31
41596;BME280;27283;52.504;13.358;2023-04-27T10:13:51;101615.31;;;14.24;33.30
41596;BME280;27283;52.504;13.358;2023-04-27T10:16:27;101605.00;;;14.20;34.08
41596;BME280;27283;52.504;13.358;2023-04-27T10:19:12;101623.00;;;12.66;33.77
41596;BME280;27283;52.504;13.358;2023-04-27T10:21:55;101621.66;;;11.44;36.01
41596;BME280;27283;52.504;13.358;2023-04-27T10:24:36;101620.72;;;10.51;38.40
41596;BME280;27283;52.504;13.358;2023-04-27T10:27:11;101617.50;;;11.32;39.23
41596;BME280;27283;52.504;13.358;2023-04-27T10:29:52;101627.84;;;11.55;37.55
41596;BME280;27283;52.504;13.358;2023-04-27T10:32:29;101623.72;;;11.05;38.50
41596;BME280;27283;52.504;13.358;2023-04-27T10:35:03;101623.25;;;11.09;40.07
41596;BME280;27283;52.504;13.358;2023-04-27T10:37:38;101620.00;;;10.78;38.96
41596;BME280;27283;52.504;13.358;2023-04-27T10:40:13;101628.66;;;10.52;40.13
41596;BME280;27283;52.504;13.358;2023-04-27T10:42:49;101622.38;;;11.92;36.69
41596;BME280;27283;52.504;13.358;2023-04-27T10:45:26;101626.69;;;13.18;35.96
41596;BME280;27283;52.504;13.358;2023-04-27T10:48:03;101615.84;;;13.44;35.32
41596;BME280;27283;52.504;13.358;2023-04-27T10:50:37;101607.22;;;14.24;32.68
41596;BME280;27283;52.504;13.358;2023-04-27T10:53:10;101616.84;;;13.08;33.26
41596;BME280;27283;52.504;13.358;2023-04-27T10:55:43;101604.75;;;13.21;33.16
41596;BME280;27283;52.504;13.358;2023-04-27T10:58:21;101607.84;;;13.77;31.39
41596;BME280;27283;52.504;13.358;2023-04-27T11:01:23;101607.84;;;13.85;33.78
41596;BME280;27283;52.504;13.358;2023-04-27T11:04:02;101613.63;;;13.05;34.06
41596;BME280;27283;52.504;13.358;2023-04-27T11:06:42;101609.69;;;12.91;34.74
41596;BME280;27283;52.504;13.358;2023-04-27T11:09:25;101614.78;;;13.02;34.78
41596;BME280;27283;52.504;13.358;2023-04-27T11:12:00;101615.91;;;12.91;36.21
41596;BME280;27283;52.504;13.358;2023-04-27T11:14:34;101617.03;;;12.54;36.72
41596;BME280;27283;52.504;13.358;2023-04-27T11:17:07;101618.16;;;12.08;36.54
41596;BME280;27283;52.504;13.358;2023-04-27T11:19:47;101624.78;;;11.95;35.85
41596;BME280;27283;52.504;13.358;2023-04-27T11:22:21;101614.31;;;12.10;35.09
41596;BME280;27283;52.504;13.358;2023-04-27T11:24:54;101615.56;;;11.98;35.32
41596;BME280;27283;52.504;13.358;2023-04-27T11:27:36;101614.19;;;11.66;34.56
41596;BME280;27283;52.504;13.358;2023-04-27T11:30:19;101618.25;;;11.98;36.19
41596;BME280;27283;52.504;13.358;2023-04-27T11:32:52;101618.16;;;12.26;34.86
41596;BME280;27283;52.504;13.358;2023-04-27T11:35:34;101630.03;;;11.97;34.97
41596;BME280;27283;52.504;13.358;2023-04-27T11:38:15;101620.78;;;11.53;36.14
41596;BME280;27283;52.504;13.358;2023-04-27T11:40:58;101625.72;;;10.93;37.10
41596;BME280;27283;52.504;13.358;2023-04-27T11:43:32;101624.28;;;11.08;38.50
41596;BME280;27283;52.504;13.358;2023-04-27T11:46:05;101629.00;;;11.24;38.72
41596;BME280;27283;52.504;13.358;2023-04-27T11:48:39;101635.69;;;11.20;38.39
41596;BME280;27283;52.504;13.358;2023-04-27T11:51:15;101638.03;;;11.05;38.06
41596;BME280;27283;52.504;13.358;2023-04-27T11:53:49;101630.34;;;11.10;37.30
41596;BME280;27283;52.504;13.358;2023-04-27T11:56:21;101638.66;;;11.27;37.81
41596;BME280;27283;52.504;13.358;2023-04-27T11:58:54;101646.84;;;11.81;37.33
41596;BME280;27283;52.504;13.358;2023-04-27T12:01:26;101644.88;;;11.27;36.62
41596;BME280;27283;52.504;13.358;2023-04-27T12:04:06;101648.13;;;10.84;36.40
41596;BME280;27283;52.504;13.358;2023-04-27T12:06:42;101646.34;;;10.64;36.56
41596;BME280;27283;52.504;13.358;2023-04-27T12:09:15;101642.22;;;11.17;35.96
41596;BME280;27283;52.504;13.358;2023-04-27T12:11:48;101644.94;;;11.08;35.35
41596;BME280;27283;52.504;13.358;2023-04-27T12:14:23;101638.06;;;10.95;36.99
41596;BME280;27283;52.504;13.358;2023-04-27T12:16:55;101640.06;;;10.84;37.63
41596;BME280;27283;52.504;13.358;2023-04-27T12:19:28;101648.06;;;10.46;38.04
41596;BME280;27283;52.504;13.358;2023-04-27T12:22:05;101655.84;;;10.49;38.01
41596;BME280;27283;52.504;13.358;2023-04-27T12:24:46;101653.81;;;10.80;38.61
41596;BME280;27283;52.504;13.358;2023-04-27T12:27:19;101656.78;;;10.77;38.16
41596;BME280;27283;52.504;13.358;2023-04-27T12:29:51;101644.47;;;10.85;39.30
41596;BME280;27283;52.504;13.358;2023-04-27T12:32:28;101646.59;;;11.18;37.77
41596;BME280;27283;52.504;13.358;2023-04-27T12:35:01;101640.34;;;10.80;38.83
41596;BME280;27283;52.504;13.358;2023-04-27T12:37:36;101639.47;;;11.27;38.74
41596;BME280;27283;52.504;13.358;2023-04-27T12:40:11;101648.75;;;11.70;36.86
41596;BME280;27283;52.504;13.358;2023-04-27T12:42:43;101638.94;;;11.79;36.90
41596;BME280;27283;52.504;13.358;2023-04-27T12:45:16;101640.03;;;12.04;35.95
41596;BME280;27283;52.504;13.358;2023-04-27T12:47:48;101639.97;;;11.50;36.52
41596;BME280;27283;52.504;13.358;2023-04-27T12:50:32;101651.44;;;11.15;37.65
41596;BME280;27283;52.504;13.358;2023-04-27T12:53:07;101647.50;;;11.09;38.23
41596;BME280;27283;52.504;13.358;2023-04-27T12:55:40;101648.19;;;11.49;37.76
41596;BME280;27283;52.504;13.358;2023-04-27T12:58:13;101649.84;;;11.78;36.41
41596;BME280;27283;52.504;13.358;2023-04-27T13:00:50;101656.25;;;11.49;37.10
41596;BME280;27283;52.504;13.358;2023-04-27T13:03:42;101651.78;;;11.58;37.29
41596;BME280;27283;52.504;13.358;2023-04-27T13:06:16;101646.25;;;11.87;37.71
41596;BME280;27283;52.504;13.358;2023-04-27T13:08:53;101650.03;;;12.30;36.59
41596;BME280;27283;52.504;13.358;2023-04-27T13:11:26;101651.72;;;12.49;35.83
41596;BME280;27283;52.504;13.358;2023-04-27T13:13:58;101645.06;;;11.44;35.44
41596;BME280;27283;52.504;13.358;2023-04-27T13:16:33;101646.41;;;11.58;36.05
41596;BME280;27283;52.504;13.358;2023-04-27T13:19:08;101636.19;;;11.61;36.35
41596;BME280;27283;52.504;13.358;2023-04-27T13:21:56;101640.28;;;11.38;38.11
41596;BME280;27283;52.504;13.358;2023-04-27T13:24:35;101641.66;;;11.97;38.63
41596;BME280;27283;52.504;13.358;2023-04-27T13:27:08;101636.31;;;11.87;36.68
41596;BME280;27283;52.504;13.358;2023-04-27T13:29:40;101643.44;;;11.79;35.49
41596;BME280;27283;52.504;13.358;2023-04-27T13:32:14;101641.63;;;11.51;35.50
41596;BME280;27283;52.504;13.358;2023-04-27T13:34:46;101640.88;;;11.04;34.23
41596;BME280;27283;52.504;13.358;2023-04-27T13:37:22;101634.44;;;11.14;34.58